createdAt,value
2022-12-19T00:01:55.077Z,102010.47
2022-12-19T00:04:22.146Z,102005.22
2022-12-19T00:06:49.235Z,101992.19
2022-12-19T00:09:16.367Z,102000.03
2022-12-19T00:11:43.476Z,101998.25
2022-12-19T00:14:12.326Z,102000.03
2022-12-19T00:16:39.552Z,101999.25
2022-12-19T00:19:09.415Z,101998.44
2022-12-19T00:21:37.444Z,101998.44
2022-12-19T00:24:12.397Z,102009.75
2022-12-19T00:26:48.091Z,102009.03
2022-12-19T00:29:15.342Z,102009.88
2022-12-19T00:31:43.680Z,101996.84
2022-12-19T00:34:11.029Z,101975.00
2022-12-19T00:36:40.190Z,101975.13
2022-12-19T00:39:08.772Z,101970.78
2022-12-19T00:41:41.328Z,101965.56
2022-12-19T00:44:16.914Z,101971.78
2022-12-19T00:46:46.469Z,101968.31
2022-12-19T00:49:20.619Z,101973.69
2022-12-19T00:51:47.625Z,101961.59
2022-12-19T00:54:15.038Z,101940.75
2022-12-19T00:56:42.369Z,101926.81
2022-12-19T00:59:10.595Z,101918.09
2022-12-19T01:01:41.321Z,101919.88
2022-12-19T01:04:30.379Z,101912.91
2022-12-19T01:07:02.002Z,101911.31
2022-12-19T01:09:34.380Z,101909.63
2022-12-19T01:12:23.138Z,101912.25
2022-12-19T01:14:58.528Z,101913.22
2022-12-19T01:17:31.254Z,101907.97
2022-12-19T01:19:58.355Z,101901.91
2022-12-19T01:22:25.462Z,101904.50
2022-12-19T01:24:52.595Z,101915.97
2022-12-19T01:27:19.644Z,101912.50
2022-12-19T01:29:52.779Z,101911.69
2022-12-19T01:32:21.721Z,101896.91
2022-12-19T01:34:49.122Z,101888.22
2022-12-19T01:37:20.315Z,101888.31
2022-12-19T01:39:47.584Z,101888.25
2022-12-19T01:42:23.360Z,101890.84
2022-12-19T01:45:12.153Z,101884.78
2022-12-19T01:47:57.532Z,101885.63
2022-12-19T01:50:33.383Z,101874.28
2022-12-19T01:53:02.295Z,101873.50
2022-12-19T01:55:30.931Z,101864.81
2022-12-19T01:58:00.352Z,101858.78
2022-12-19T02:00:27.478Z,101859.69
2022-12-19T02:03:27.185Z,101849.25
2022-12-19T02:05:55.362Z,101852.75
2022-12-19T02:08:24.029Z,101848.44
2022-12-19T02:10:51.251Z,101845.88
2022-12-19T02:13:19.587Z,101856.41
2022-12-19T02:15:57.285Z,101845.16
2022-12-19T02:18:55.776Z,101844.44
2022-12-19T02:21:44.986Z,101839.25
2022-12-19T02:24:51.514Z,101828.78
2022-12-19T02:28:03.792Z,101820.97
2022-12-19T02:30:52.599Z,101819.28
2022-12-19T02:33:40.223Z,101824.69
2022-12-19T02:36:19.345Z,101814.31
2022-12-19T02:39:02.905Z,101811.78
2022-12-19T02:41:46.313Z,101811.81
2022-12-19T02:44:29.869Z,101799.78
2022-12-19T02:47:00.532Z,101795.41
2022-12-19T02:49:34.931Z,101791.03
2022-12-19T02:52:21.112Z,101785.03
2022-12-19T02:54:59.654Z,101771.09
2022-12-19T02:57:42.093Z,101771.09
2022-12-19T03:00:18.231Z,101758.88
2022-12-19T03:03:06.570Z,101772.94
2022-12-19T03:06:01.018Z,101766.81
2022-12-19T03:08:59.032Z,101765.13
2022-12-19T03:11:34.598Z,101751.19
2022-12-19T03:14:07.891Z,101760.81
2022-12-19T03:16:37.047Z,101757.38
2022-12-19T03:19:11.985Z,101751.25
2022-12-19T03:21:46.209Z,101752.22
2022-12-19T03:24:18.303Z,101740.91
2022-12-19T03:26:57.958Z,101744.38
2022-12-19T03:29:37.685Z,101750.56
2022-12-19T03:32:09.501Z,101746.22
2022-12-19T03:34:59.653Z,101741.00
2022-12-19T03:37:31.537Z,101745.41
2022-12-19T03:40:04.599Z,101741.94
2022-12-19T03:42:51.805Z,101737.63
2022-12-19T03:45:32.935Z,101735.84
2022-12-19T03:48:08.285Z,101728.88
2022-12-19T03:51:10.057Z,101723.63
2022-12-19T03:53:58.347Z,101718.47
2022-12-19T03:56:50.800Z,101725.53
2022-12-19T03:59:52.356Z,101718.50
2022-12-19T04:02:22.698Z,101715.91
2022-12-19T04:04:58.273Z,101707.16
2022-12-19T04:07:25.973Z,101708.97
2022-12-19T04:09:56.236Z,101712.50
2022-12-19T04:12:33.430Z,101709.91
2022-12-19T04:15:00.589Z,101706.44
2022-12-19T04:17:49.432Z,101704.66
2022-12-19T04:20:21.256Z,101699.38
2022-12-19T04:23:06.816Z,101703.81
2022-12-19T04:25:46.740Z,101692.44
2022-12-19T04:28:20.539Z,101700.34
2022-12-19T04:30:49.413Z,101706.50
2022-12-19T04:33:16.564Z,101694.28
2022-12-19T04:35:43.661Z,101703.00
2022-12-19T04:38:10.758Z,101694.25
2022-12-19T04:40:41.131Z,101692.53
2022-12-19T04:43:09.113Z,101685.53
2022-12-19T04:45:36.525Z,101690.00
2022-12-19T04:48:04.150Z,101689.94
2022-12-19T04:50:33.680Z,101682.97
2022-12-19T04:53:01.241Z,101680.38
2022-12-19T04:55:28.337Z,101671.59
2022-12-19T04:57:55.504Z,101673.41
2022-12-19T05:00:23.098Z,101674.28
2022-12-19T05:02:50.331Z,101676.06
2022-12-19T05:05:18.896Z,101667.31
2022-12-19T05:07:46.920Z,101671.69
2022-12-19T05:10:14.222Z,101670.81
2022-12-19T05:12:41.326Z,101670.84
2022-12-19T05:15:09.332Z,101664.72
2022-12-19T05:17:36.635Z,101664.75
2022-12-19T05:20:04.732Z,101657.78
2022-12-19T05:22:32.914Z,101656.91
2022-12-19T05:25:00.021Z,101660.44
2022-12-19T05:27:27.134Z,101656.03
2022-12-19T05:29:54.241Z,101647.25
2022-12-19T05:32:21.398Z,101641.16
2022-12-19T05:34:48.464Z,101645.56
2022-12-19T05:37:15.523Z,101647.34
2022-12-19T05:39:42.640Z,101652.63
2022-12-19T05:42:12.349Z,101651.78
2022-12-19T05:44:39.849Z,101652.69
2022-12-19T05:47:06.939Z,101650.06
2022-12-19T05:49:33.999Z,101650.06
2022-12-19T05:52:01.086Z,101644.81
2022-12-19T05:54:28.236Z,101660.66
2022-12-19T05:56:55.333Z,101640.47
2022-12-19T05:59:22.448Z,101652.78
2022-12-19T06:01:49.588Z,101651.91
2022-12-19T06:04:16.782Z,101657.19
2022-12-19T06:06:44.005Z,101648.44
2022-12-19T06:09:11.101Z,101658.97
2022-12-19T06:11:38.204Z,101654.59
2022-12-19T06:14:08.211Z,101659.00
2022-12-19T06:16:35.372Z,101651.09
2022-12-19T06:19:02.611Z,101650.22
2022-12-19T06:21:29.754Z,101649.38
2022-12-19T06:23:56.913Z,101638.81
2022-12-19T06:26:24.128Z,101640.59
2022-12-19T06:28:52.964Z,101631.84
2022-12-19T06:31:21.965Z,101640.63
2022-12-19T06:33:49.396Z,101633.63
2022-12-19T06:36:26.935Z,101634.47
2022-12-19T06:38:55.932Z,101630.09
2022-12-19T06:41:41.709Z,101643.25
2022-12-19T06:44:12.853Z,101640.63
2022-12-19T06:46:41.356Z,101638.00
2022-12-19T06:49:10.410Z,101643.25
2022-12-19T06:51:37.793Z,101628.28
2022-12-19T06:54:05.348Z,101645.88
2022-12-19T06:56:41.262Z,101627.41
2022-12-19T06:59:13.576Z,101632.69
2022-12-19T07:02:22.244Z,101646.78
2022-12-19T07:04:58.117Z,101620.34
2022-12-19T07:07:25.169Z,101642.38
2022-12-19T07:09:52.294Z,101646.75
2022-12-19T07:12:19.374Z,101631.78
2022-12-19T07:14:51.672Z,101657.31
2022-12-19T07:17:22.017Z,101649.41
2022-12-19T07:19:55.525Z,101647.63
2022-12-19T07:22:23.773Z,101648.50
2022-12-19T07:24:51.069Z,101664.38
2022-12-19T07:27:18.177Z,101642.31
2022-12-19T07:29:45.242Z,101658.19
2022-12-19T07:32:12.322Z,101663.47
2022-12-19T07:34:39.444Z,101652.84
2022-12-19T07:37:07.605Z,101666.94
2022-12-19T07:39:34.669Z,101661.66
2022-12-19T07:42:01.648Z,101658.13
2022-12-19T07:44:37.325Z,101652.84
2022-12-19T07:47:04.557Z,101653.69
2022-12-19T07:49:35.137Z,101666.03
2022-12-19T07:52:02.267Z,101661.63
2022-12-19T07:54:29.311Z,101654.59
2022-12-19T07:56:56.467Z,101661.63
2022-12-19T07:59:29.019Z,101661.59
2022-12-19T08:01:58.637Z,101664.28
2022-12-19T08:04:26.534Z,101658.91
2022-12-19T08:06:53.568Z,101665.13
2022-12-19T08:09:20.647Z,101666.00
2022-12-19T08:11:47.773Z,101675.66
2022-12-19T08:14:15.194Z,101666.81
2022-12-19T08:17:18.207Z,101679.16
2022-12-19T08:19:29.264Z,101671.19
2022-12-19T08:21:56.381Z,101672.06
2022-12-19T08:24:23.452Z,101680.94
2022-12-19T08:26:50.591Z,101677.31
2022-12-19T08:29:17.720Z,101683.47
2022-12-19T08:31:44.800Z,101675.56
2022-12-19T08:34:11.902Z,101687.00
2022-12-19T08:36:39.464Z,101681.66
2022-12-19T08:39:08.194Z,101679.94
2022-12-19T08:41:35.302Z,101688.72
2022-12-19T08:44:02.370Z,101686.06
2022-12-19T08:46:29.677Z,101697.53
2022-12-19T08:48:57.212Z,101691.34
2022-12-19T08:51:24.460Z,101692.19
2022-12-19T08:53:51.778Z,101701.00
2022-12-19T08:56:21.811Z,101686.91
2022-12-19T08:58:51.444Z,101691.28
2022-12-19T09:01:23.808Z,101684.25
2022-12-19T09:05:16.456Z,101684.25
2022-12-19T09:06:38.516Z,101692.19
2022-12-19T09:09:05.838Z,101688.59
2022-12-19T09:11:33.042Z,101686.84
2022-12-19T09:14:04.990Z,101691.28
2022-12-19T09:16:32.183Z,101691.25
2022-12-19T09:18:59.356Z,101692.13
2022-12-19T09:21:29.531Z,101693.06
2022-12-19T09:24:07.091Z,101701.84
2022-12-19T09:26:38.505Z,101703.59
2022-12-19T09:29:20.931Z,101707.09
2022-12-19T09:31:55.677Z,101704.47
2022-12-19T09:34:37.143Z,101707.94
2022-12-19T09:37:17.060Z,101706.16
2022-12-19T09:39:48.546Z,101712.31
2022-12-19T09:43:06.719Z,101709.69
2022-12-19T09:46:06.124Z,101711.47
2022-12-19T09:48:33.233Z,101705.22
2022-12-19T09:51:38.654Z,101708.75
2022-12-19T09:54:15.626Z,101711.38
2022-12-19T09:56:46.531Z,101709.63
2022-12-19T09:59:39.755Z,101714.03
2022-12-19T10:02:39.083Z,101703.44
2022-12-19T10:05:39.423Z,101710.50
2022-12-19T10:08:21.980Z,101703.44
2022-12-19T10:12:39.023Z,101706.09
2022-12-19T10:14:22.805Z,101699.84
2022-12-19T10:17:27.066Z,101693.66
2022-12-19T10:20:11.793Z,101705.06
2022-12-19T10:23:09.203Z,101700.63
2022-12-19T10:26:16.601Z,101688.22
2022-12-19T10:29:02.304Z,101689.97
2022-12-19T10:31:57.094Z,101690.81
2022-12-19T10:34:38.567Z,101699.56
2022-12-19T10:37:40.872Z,101700.38
2022-12-19T10:40:34.656Z,101695.16
2022-12-19T10:43:35.645Z,101686.25
2022-12-19T10:46:15.879Z,101682.69
2022-12-19T10:48:43.061Z,101686.22
2022-12-19T10:51:14.246Z,101680.00
2022-12-19T10:53:41.400Z,101687.09
2022-12-19T10:56:33.228Z,101682.59
2022-12-19T10:59:04.862Z,101691.44
2022-12-19T11:01:39.764Z,101694.06
2022-12-19T11:04:33.453Z,101694.06
2022-12-19T11:07:32.005Z,101691.47
2022-12-19T11:10:44.406Z,101693.25
2022-12-19T11:19:15.284Z,101681.69
2022-12-19T11:20:02.010Z,101682.59
2022-12-19T11:27:05.452Z,101679.06
2022-12-19T11:30:09.081Z,101669.28
2022-12-19T11:30:26.092Z,101673.66
2022-12-19T11:30:45.502Z,101671.09
2022-12-19T11:33:19.516Z,101662.22
2022-12-19T11:35:56.263Z,101658.66
2022-12-19T11:39:02.100Z,101675.44
2022-12-19T11:41:46.454Z,101666.59
2022-12-19T11:44:30.715Z,101670.16
2022-12-19T11:47:17.192Z,101665.69
2022-12-19T11:50:03.016Z,101665.59
2022-12-19T11:53:14.686Z,101677.97
2022-12-19T11:56:25.029Z,101680.63
2022-12-19T11:59:01.069Z,101677.97
2022-12-19T12:01:46.043Z,101662.91
2022-12-19T12:04:55.920Z,101670.88
2022-12-19T12:07:38.037Z,101666.47
2022-12-19T12:15:18.964Z,101666.38
2022-12-19T12:19:55.589Z,101655.75
2022-12-19T12:29:25.620Z,101646.03
2022-12-19T12:31:04.067Z,101654.84
2022-12-19T12:31:18.720Z,101649.53
2022-12-19T12:31:38.743Z,101633.56
2022-12-19T12:32:03.190Z,101646.88
2022-12-19T12:36:00.031Z,101646.84
2022-12-19T12:37:51.093Z,101632.69
2022-12-19T12:38:51.466Z,101630.03
2022-12-19T12:42:06.073Z,101624.72
2022-12-19T12:44:45.103Z,101615.84
2022-12-19T12:47:24.566Z,101608.78
2022-12-19T12:49:56.342Z,101603.41
2022-12-19T12:52:44.289Z,101600.66
2022-12-19T12:55:43.298Z,101597.13
2022-12-19T12:59:04.993Z,101598.84
2022-12-19T13:01:39.063Z,101598.84
2022-12-19T13:04:25.796Z,101587.31
2022-12-19T13:06:52.777Z,101590.00
2022-12-19T13:09:29.878Z,101580.25
2022-12-19T13:12:57.599Z,101572.31
2022-12-19T13:15:27.641Z,101589.94
2022-12-19T13:17:54.730Z,101580.25
2022-12-19T13:20:25.987Z,101586.41
2022-12-19T13:23:21.616Z,101589.06
2022-12-19T13:25:54.449Z,101574.03
2022-12-19T13:28:21.804Z,101566.03
2022-12-19T13:31:20.340Z,101575.72
2022-12-19T13:34:17.068Z,101565.16
2022-12-19T13:39:58.098Z,101552.84
2022-12-19T13:40:09.002Z,101540.41
2022-12-19T13:43:09.901Z,101549.31
2022-12-19T13:45:41.918Z,101552.84
2022-12-19T13:48:18.585Z,101535.91
2022-12-19T13:50:49.385Z,101541.34
2022-12-19T13:53:20.428Z,101532.47
2022-12-19T13:55:47.660Z,101522.69
2022-12-19T13:58:29.861Z,101515.69
2022-12-19T14:01:02.572Z,101516.53
2022-12-19T14:04:30.177Z,101518.28
2022-12-19T14:07:02.227Z,101508.56
2022-12-19T14:11:35.381Z,101519.09
2022-12-19T14:13:57.212Z,101527.03
2022-12-19T14:15:52.489Z,101533.25
2022-12-19T14:18:43.158Z,101521.72
2022-12-19T14:22:10.701Z,101520.84
2022-12-19T14:24:19.835Z,101511.09
2022-12-19T14:28:25.686Z,101511.94
2022-12-19T14:30:32.569Z,101525.13
2022-12-19T14:33:44.716Z,101519.88
2022-12-19T14:36:12.420Z,101515.50
2022-12-19T14:39:22.830Z,101505.81
2022-12-19T14:42:01.458Z,101491.69
2022-12-19T14:52:51.579Z,101504.91
2022-12-19T14:54:07.515Z,101512.91
2022-12-19T14:54:08.373Z,101519.03
2022-12-19T14:54:38.005Z,101519.06
2022-12-19T14:59:06.061Z,101528.75
2022-12-19T15:01:36.729Z,101524.34
2022-12-19T15:04:51.191Z,101529.69
2022-12-19T15:07:11.758Z,101534.06
2022-12-19T15:11:03.468Z,101530.53
2022-12-19T15:14:50.663Z,101536.75
2022-12-19T15:16:04.626Z,101534.91
2022-12-19T15:18:42.301Z,101535.81
2022-12-19T15:21:13.772Z,101546.44
2022-12-19T15:23:43.426Z,101555.38
2022-12-19T15:26:19.377Z,101561.50
2022-12-19T15:28:52.524Z,101554.44
2022-12-19T15:31:29.678Z,101563.31
2022-12-19T15:34:32.939Z,101560.72
2022-12-19T15:36:44.566Z,101560.66
2022-12-19T15:39:11.772Z,101551.72
2022-12-19T15:41:38.948Z,101549.91
2022-12-19T15:44:19.093Z,101536.75
2022-12-19T15:46:49.408Z,101532.28
2022-12-19T15:49:22.146Z,101536.69
2022-12-19T15:51:50.249Z,101522.56
2022-12-19T15:57:05.067Z,101520.97
2022-12-19T15:59:43.149Z,101525.34
2022-12-19T16:02:22.865Z,101528.91
2022-12-19T16:04:55.542Z,101532.47
2022-12-19T16:07:27.060Z,101535.09
2022-12-19T16:09:55.378Z,101528.94
2022-12-19T16:12:34.428Z,101518.31
2022-12-19T16:15:02.830Z,101513.91
2022-12-19T16:17:33.039Z,101518.38
2022-12-19T16:20:00.152Z,101524.63
2022-12-19T16:22:29.371Z,101530.91
2022-12-19T16:24:57.204Z,101537.09
2022-12-19T16:27:26.263Z,101539.81
2022-12-19T16:29:54.737Z,101550.41
2022-12-19T16:32:26.577Z,101557.50
2022-12-19T16:34:54.368Z,101561.88
2022-12-19T16:37:23.597Z,101559.19
2022-12-19T16:39:54.342Z,101552.97
2022-12-19T16:42:21.462Z,101546.75
2022-12-19T16:44:48.717Z,101555.59
2022-12-19T16:47:18.223Z,101545.88
2022-12-19T16:49:45.721Z,101540.56
2022-12-19T16:52:12.799Z,101522.00
2022-12-19T16:54:40.098Z,101528.03
2022-12-19T16:57:18.697Z,101529.88
2022-12-19T16:59:46.349Z,101520.13
2022-12-19T17:02:41.076Z,101524.50
2022-12-19T17:05:18.349Z,101528.06
2022-12-19T17:07:45.777Z,101514.75
2022-12-19T17:10:13.196Z,101512.03
2022-12-19T17:12:40.927Z,101515.50
2022-12-19T17:15:22.044Z,101510.22
2022-12-19T17:17:49.967Z,101519.03
2022-12-19T17:20:21.036Z,101514.50
2022-12-19T17:22:49.714Z,101507.44
2022-12-19T17:25:25.549Z,101521.50
2022-12-19T17:27:54.626Z,101523.34
2022-12-19T17:30:22.872Z,101530.44
2022-12-19T17:32:53.317Z,101520.81
2022-12-19T17:35:31.684Z,101526.81
2022-12-19T17:37:58.772Z,101533.03
2022-12-19T17:40:29.928Z,101524.28
2022-12-19T17:42:57.793Z,101536.59
2022-12-19T17:45:28.728Z,101526.97
2022-12-19T17:48:02.729Z,101532.34
2022-12-19T17:50:37.923Z,101533.25
2022-12-19T17:53:06.359Z,101525.25
2022-12-19T17:55:33.510Z,101525.28
2022-12-19T17:58:00.706Z,101536.75
2022-12-19T18:00:30.949Z,101539.50
2022-12-19T18:03:05.805Z,101542.09
2022-12-19T18:05:36.286Z,101542.09
2022-12-19T18:08:06.639Z,101537.66
2022-12-19T18:10:33.781Z,101545.63
2022-12-19T18:13:00.831Z,101538.56
2022-12-19T18:15:27.934Z,101538.63
2022-12-19T18:17:55.237Z,101535.97
2022-12-19T18:20:32.875Z,101549.31
2022-12-19T18:23:01.785Z,101537.75
2022-12-19T18:25:32.336Z,101536.91
2022-12-19T18:27:59.588Z,101536.78
2022-12-19T18:30:26.921Z,101529.72
2022-12-19T18:33:01.393Z,101529.72
2022-12-19T18:35:54.948Z,101515.50
2022-12-19T18:38:24.555Z,101531.44
2022-12-19T18:40:52.218Z,101527.91
2022-12-19T18:43:20.131Z,101515.50
2022-12-19T18:45:51.820Z,101520.00
2022-12-19T18:48:23.629Z,101517.31
2022-12-19T18:50:51.131Z,101518.94
2022-12-19T18:53:21.720Z,101519.03
2022-12-19T18:55:50.932Z,101521.69
2022-12-19T18:58:20.416Z,101522.56
2022-12-19T19:00:51.931Z,101517.16
2022-12-19T19:03:30.142Z,101533.88
2022-12-19T19:05:57.925Z,101532.97
2022-12-19T19:08:29.538Z,101541.00
2022-12-19T19:11:06.356Z,101539.94
2022-12-19T19:13:33.651Z,101540.78
2022-12-19T19:16:05.391Z,101539.94
2022-12-19T19:18:38.461Z,101547.84
2022-12-19T19:21:08.251Z,101544.31
2022-12-19T19:23:45.939Z,101547.84
2022-12-19T19:26:13.113Z,101564.59
2022-12-19T19:28:40.238Z,101558.50
2022-12-19T19:31:11.520Z,101569.09
2022-12-19T19:33:45.156Z,101569.06
2022-12-19T19:36:18.706Z,101577.94
2022-12-19T19:38:50.673Z,101577.03
2022-12-19T19:41:18.134Z,101573.31
2022-12-19T19:43:45.210Z,101577.75
2022-12-19T19:46:12.942Z,101570.63
2022-12-19T19:48:42.445Z,101588.25
2022-12-19T19:51:09.926Z,101575.94
2022-12-19T19:53:37.060Z,101574.94
2022-12-19T19:56:04.848Z,101571.50
2022-12-19T19:58:32.194Z,101577.78
2022-12-19T20:00:59.623Z,101587.50
2022-12-19T20:03:28.053Z,101591.03
2022-12-19T20:06:02.630Z,101573.25
2022-12-19T20:08:38.569Z,101584.72
2022-12-19T20:11:06.861Z,101594.44
2022-12-19T20:13:34.431Z,101593.72
2022-12-19T20:16:12.362Z,101586.63
2022-12-19T20:18:41.228Z,101586.59
2022-12-19T20:21:13.879Z,101584.03
2022-12-19T20:23:43.265Z,101579.69
2022-12-19T20:26:12.583Z,101582.38
2022-12-19T20:28:47.772Z,101588.47
2022-12-19T20:31:16.583Z,101584.16
2022-12-19T20:33:43.843Z,101585.03
2022-12-19T20:36:13.010Z,101583.16
2022-12-19T20:38:40.569Z,101567.34
2022-12-19T20:41:08.147Z,101572.69
2022-12-19T20:43:35.674Z,101578.03
2022-12-19T20:46:10.167Z,101570.13
2022-12-19T20:48:38.153Z,101575.50
2022-12-19T20:51:06.400Z,101575.59
2022-12-19T20:53:35.668Z,101572.97
2022-12-19T20:56:05.458Z,101573.88
2022-12-19T20:58:35.585Z,101588.94
2022-12-19T21:01:14.644Z,101572.06
2022-12-19T21:03:43.209Z,101585.34
2022-12-19T21:06:12.385Z,101580.13
2022-12-19T21:08:40.021Z,101581.00
2022-12-19T21:11:08.602Z,101580.97
2022-12-19T21:13:37.942Z,101583.72
2022-12-19T21:16:08.755Z,101588.09
2022-12-19T21:18:38.544Z,101576.59
2022-12-19T21:21:08.507Z,101581.06
2022-12-19T21:23:35.741Z,101578.41
2022-12-19T21:26:28.509Z,101572.97
2022-12-19T21:28:57.945Z,101567.53
2022-12-19T21:31:29.044Z,101582.56
2022-12-19T21:34:02.165Z,101579.81
2022-12-19T21:36:30.470Z,101567.38
2022-12-19T21:39:01.753Z,101570.94
2022-12-19T21:41:29.815Z,101580.59
2022-12-19T21:43:57.993Z,101577.03
2022-12-19T21:46:29.507Z,101576.09
2022-12-19T21:48:57.755Z,101577.06
2022-12-19T21:51:28.929Z,101571.63
2022-12-19T21:54:02.667Z,101568.09
2022-12-19T21:56:39.071Z,101572.38
2022-12-19T21:59:12.405Z,101580.41
2022-12-19T22:01:41.790Z,101576.81
2022-12-19T22:04:23.663Z,101575.00
2022-12-19T22:06:51.948Z,101573.16
2022-12-19T22:09:25.265Z,101571.41
2022-12-19T22:11:52.374Z,101577.66
2022-12-19T22:14:19.550Z,101564.41
2022-12-19T22:16:46.726Z,101568.78
2022-12-19T22:19:16.875Z,101554.59
2022-12-19T22:21:46.328Z,101553.69
2022-12-19T22:24:16.164Z,101533.28
2022-12-19T22:26:43.795Z,101536.03
2022-12-19T22:29:14.908Z,101538.47
2022-12-19T22:31:43.240Z,101535.91
2022-12-19T22:34:14.758Z,101540.41
2022-12-19T22:36:43.877Z,101529.78
2022-12-19T22:39:14.900Z,101528.91
2022-12-19T22:41:43.594Z,101540.41
2022-12-19T22:44:19.452Z,101531.56
2022-12-19T22:46:47.054Z,101528.13
2022-12-19T22:49:14.346Z,101521.00
2022-12-19T22:51:42.464Z,101525.50
2022-12-19T22:54:11.206Z,101515.72
2022-12-19T22:56:39.007Z,101513.06
2022-12-19T22:59:08.660Z,101506.91
2022-12-19T23:01:40.692Z,101511.25
2022-12-19T23:04:10.908Z,101506.88
2022-12-19T23:06:38.577Z,101501.56
2022-12-19T23:09:08.149Z,101513.16
2022-12-19T23:11:38.711Z,101511.41
2022-12-19T23:14:09.618Z,101512.28
2022-12-19T23:16:36.916Z,101517.53
2022-12-19T23:19:05.610Z,101520.16
2022-12-19T23:21:33.111Z,101517.66
2022-12-19T23:24:00.425Z,101520.34
2022-12-19T23:26:34.285Z,101525.59
2022-12-19T23:29:05.002Z,101526.50
2022-12-19T23:31:32.743Z,101528.31
2022-12-19T23:34:00.737Z,101529.97
2022-12-19T23:39:16.237Z,101515.91
2022-12-19T23:41:43.422Z,101521.13
2022-12-19T23:44:11.284Z,101509.47
2022-12-19T23:46:38.755Z,101514.88
2022-12-19T23:49:06.244Z,101510.50
2022-12-19T23:51:33.417Z,101510.50
2022-12-19T23:54:00.587Z,101500.75
2022-12-19T23:56:30.811Z,101493.56
2022-12-19T23:58:59.093Z,101489.13
